KCDS/CDS METAR and TAF weather

Enter ICAO airport designator
Station Type Date Time Source
KCDS METAR 2020/01/21 20:53 UTC NOAA

KCDS 212053Z AUTO 16010KT 10SM FEW060 11/00 A3019 RMK AO2 SLP224 T01060000 56049


Station Type Date Time Source
KCDS Decoded METAR 2020/01/21 20:53 UTC NOAA

CHILDRESS MUNICIPAL AIRPORT, TX, United States (KCDS) 34-26N 100-17W 594M
Jan 21, 2020 - 03:53 PM EST / 2020.01.21 2053 UTC
Wind: from the SSE (160 degrees) at 12 MPH (10 KT):0
Visibility: 10 mile(s):0
Sky conditions: mostly clear
Temperature: 51.1 F (10.6 C)
Dew Point: 32.0 F (0.0 C)
Relative Humidity: 47%
Pressure (altimeter): 30.19 in. Hg (1022 hPa)
Pressure tendency: 0.14 inches (4.9 hPa) lower than three hours ago
ob: KCDS 212053Z AUTO 16010KT 10SM FEW060 11/00 A3019 RMK AO2 SLP224 T01060000 56049
cycle: 21

Station Type Date Time Source
KCDS TAF 2020/01/21 18:30 UTC NOAA

TAF KCDS 211729Z 2118/2218 16011KT P6SM OVC110
TEMPO 2200/2204 4SM -RA OVC030
FM220400 17011KT 6SM -RA OVC015
FM221300 24011KT P6SM BKN070

Example: see airport list